Time;durP1;ratioP1;P1;durP2;ratioP2;P2;SDS_P1;SDS_P2;PMS_P1;PMS_P2;Temp;Humidity;BMP_temperature;BMP_pressure;BME280_temperature;BME280_humidity;BME280_pressure;Samples;Min_cycle;Max_cycle;Signal;HPM_P1;HPM_P2
2023/01/07 00:01:22;;;;;;;4.10;3.70;;;15.70;57.70;;;;;;5023419;28;20462;-59
2023/01/07 00:03:48;;;;;;;4.40;4.00;;;15.70;57.70;;;;;;5029778;28;20467;-60
2023/01/07 00:06:16;;;;;;;4.23;3.70;;;15.70;57.50;;;;;;5021217;28;20951;-59
2023/01/07 00:08:49;;;;;;;5.43;4.27;;;15.80;57.50;;;;;;5026283;28;20836;-59
2023/01/07 00:11:20;;;;;;;3.97;3.60;;;15.80;57.60;;;;;;5023518;28;20791;-59
2023/01/07 00:13:48;;;;;;;4.70;4.30;;;15.80;57.60;;;;;;5025679;28;20858;-59
2023/01/07 00:16:17;;;;;;;4.00;3.33;;;15.80;57.60;;;;;;5024442;28;20843;-59
2023/01/07 00:18:43;;;;;;;4.30;3.73;;;15.70;57.60;;;;;;5023018;28;22319;-59
2023/01/07 00:21:13;;;;;;;4.67;3.97;;;15.70;57.50;;;;;;5024722;28;20535;-59
2023/01/07 00:23:39;;;;;;;3.53;3.23;;;15.70;57.20;;;;;;5025465;28;20452;-60
2023/01/07 00:26:17;;;;;;;5.90;3.87;;;15.70;57.30;;;;;;5021514;28;20440;-59
2023/01/07 00:28:46;;;;;;;4.07;3.47;;;15.70;57.30;;;;;;5021352;28;20528;-59
2023/01/07 00:31:17;;;;;;;3.50;3.03;;;15.70;57.30;;;;;;5024794;28;20522;-59
2023/01/07 00:36:20;;;;;;;4.13;3.37;;;15.70;57.50;;;;;;5022026;28;20789;-59
2023/01/07 00:38:46;;;;;;;4.87;4.23;;;15.60;57.60;;;;;;5022621;28;20432;-59
2023/01/07 00:41:11;;;;;;;3.30;3.00;;;15.60;57.40;;;;;;5025166;28;20428;-59
2023/01/07 00:43:37;;;;;;;3.10;2.80;;;15.70;57.50;;;;;;5024935;28;20538;-59
2023/01/07 00:46:03;;;;;;;2.70;2.50;;;15.60;57.40;;;;;;5024933;28;20197;-59
2023/01/07 00:48:28;;;;;;;2.87;2.57;;;15.60;57.30;;;;;;5021146;28;20279;-60
2023/01/07 00:50:54;;;;;;;3.50;3.00;;;15.70;57.20;;;;;;5029055;28;20185;-59
2023/01/07 00:53:20;;;;;;;3.67;3.27;;;15.70;57.20;;;;;;5017136;28;20190;-59
2023/01/07 00:55:50;;;;;;;4.20;3.43;;;15.70;57.10;;;;;;5022537;28;20276;-59
2023/01/07 00:58:20;;;;;;;3.63;3.20;;;15.70;57.20;;;;;;5020191;28;20427;-59
2023/01/07 01:00:46;;;;;;;5.67;4.50;;;15.70;57.30;;;;;;5017725;28;20490;-59
2023/01/07 01:03:11;;;;;;;6.23;4.27;;;15.70;57.50;;;;;;5020273;28;20463;-59
2023/01/07 01:05:38;;;;;;;5.20;4.70;;;15.70;57.50;;;;;;5022634;28;20435;-59
2023/01/07 01:08:04;;;;;;;5.70;3.63;;;15.60;57.60;;;;;;5024298;28;20193;-59
2023/01/07 01:10:29;;;;;;;5.03;4.50;;;15.60;57.80;;;;;;5026461;28;21003;-60
2023/01/07 01:12:55;;;;;;;5.47;4.60;;;15.60;57.70;;;;;;5023391;28;20235;-59
2023/01/07 01:15:21;;;;;;;6.53;4.37;;;15.60;57.60;;;;;;5023104;28;21009;-59
2023/01/07 01:17:46;;;;;;;5.03;4.37;;;15.70;57.50;;;;;;5023500;28;20188;-59
2023/01/07 01:20:14;;;;;;;5.73;4.30;;;15.70;57.60;;;;;;5016455;28;20189;-59
2023/01/07 01:22:40;;;;;;;4.77;4.33;;;15.60;57.70;;;;;;5028726;28;20571;-59
2023/01/07 01:25:06;;;;;;;5.67;4.70;;;15.50;57.90;;;;;;5026370;28;21020;-59
2023/01/07 01:27:32;;;;;;;5.73;5.20;;;15.40;58.10;;;;;;5020585;28;20567;-60
2023/01/07 01:29:58;;;;;;;7.13;6.40;;;15.40;58.20;;;;;;5029955;28;21101;-59
2023/01/07 01:32:24;;;;;;;7.20;6.50;;;15.40;58.60;;;;;;5025858;28;20258;-59
2023/01/07 01:34:50;;;;;;;7.57;6.77;;;15.30;58.80;;;;;;5025445;28;20468;-59
2023/01/07 01:37:16;;;;;;;7.07;6.37;;;15.30;59.00;;;;;;5030255;28;20482;-59
2023/01/07 01:39:41;;;;;;;8.90;6.50;;;15.40;59.10;;;;;;5028178;28;20278;-59
2023/01/07 01:42:21;;;;;;;10.87;6.20;;;15.20;59.30;;;;;;5031992;28;20190;-59
2023/01/07 01:44:49;;;;;;;7.37;6.60;;;15.30;59.40;;;;;;5029795;28;20229;-60
2023/01/07 01:47:29;;;;;;;9.63;6.33;;;15.30;59.20;;;;;;5026325;28;20458;-59
2023/01/07 01:50:11;;;;;;;7.50;6.40;;;15.30;59.30;;;;;;5021096;28;20568;-59
2023/01/07 01:52:47;;;;;;;9.43;6.03;;;15.30;59.20;;;;;;5024602;28;20550;-59
2023/01/07 01:55:21;;;;;;;6.47;5.63;;;15.20;59.30;;;;;;5027508;28;20447;-60
2023/01/07 01:57:49;;;;;;;5.87;5.30;;;15.20;59.40;;;;;;5028359;28;20936;-59
2023/01/07 02:00:15;;;;;;;7.43;6.73;;;15.30;59.40;;;;;;5021568;28;20435;-59
2023/01/07 02:02:53;;;;;;;7.00;5.97;;;15.30;59.30;;;;;;5019697;28;20435;-60
2023/01/07 02:05:20;;;;;;;6.07;5.20;;;15.40;59.20;;;;;;5020306;28;20805;-60
2023/01/07 02:07:45;;;;;;;6.10;4.93;;;15.40;59.00;;;;;;5021068;28;20427;-59
2023/01/07 02:10:11;;;;;;;5.97;5.37;;;15.30;58.80;;;;;;5019908;28;20476;-59
2023/01/07 02:12:39;;;;;;;6.73;6.07;;;15.30;58.80;;;;;;5027922;28;20189;-59
2023/01/07 02:15:10;;;;;;;8.97;6.67;;;15.30;59.00;;;;;;5024092;28;20296;-59
2023/01/07 02:17:51;;;;;;;5.83;5.23;;;15.30;59.10;;;;;;5020541;28;20471;-59
2023/01/07 02:20:28;;;;;;;5.67;4.87;;;15.20;59.10;;;;;;5019194;28;20436;-59
2023/01/07 02:23:19;;;;;;;6.80;4.70;;;15.20;59.30;;;;;;5020100;28;20566;-59
2023/01/07 02:26:02;;;;;;;4.77;4.37;;;15.30;59.20;;;;;;5016180;28;20448;-59
2023/01/07 02:28:52;;;;;;;4.80;4.40;;;15.30;58.90;;;;;;5020382;28;20464;-59
2023/01/07 02:31:36;;;;;;;4.80;4.30;;;15.20;58.90;;;;;;5011441;28;20974;-59
2023/01/07 02:34:50;;;;;;;4.60;4.20;;;15.20;59.00;;;;;;5024657;28;20442;-59
2023/01/07 02:37:41;;;;;;;5.07;4.57;;;15.20;59.10;;;;;;5011246;28;20475;-59
2023/01/07 02:40:23;;;;;;;6.57;4.83;;;15.10;59.10;;;;;;5022566;28;20691;-59
2023/01/07 02:42:56;;;;;;;4.60;4.20;;;15.10;59.40;;;;;;5021574;28;20803;-59
2023/01/07 02:45:44;;;;;;;5.53;4.70;;;15.20;59.30;;;;;;5021896;28;20443;-60
2023/01/07 02:48:16;;;;;;;5.60;4.70;;;15.20;59.20;;;;;;5009429;28;20872;-59
2023/01/07 02:50:42;;;;;;;7.00;5.30;;;15.20;59.00;;;;;;5025901;28;20440;-59
2023/01/07 02:53:11;;;;;;;5.70;3.93;;;15.20;59.20;;;;;;5031473;28;20766;-59
2023/01/07 02:55:49;;;;;;;4.90;4.40;;;15.20;59.00;;;;;;5029260;28;20189;-59
2023/01/07 02:58:21;;;;;;;5.23;4.73;;;15.00;59.10;;;;;;5023979;28;20447;-59
2023/01/07 03:01:16;;;;;;;6.00;5.30;;;14.80;59.60;;;;;;5029552;28;20517;-59
2023/01/07 03:03:47;;;;;;;4.57;4.17;;;14.90;60.00;;;;;;5030076;28;20508;-59
2023/01/07 03:06:18;;;;;;;5.80;4.87;;;14.90;59.90;;;;;;5032805;28;20539;-59
2023/01/07 03:08:57;;;;;;;6.90;5.80;;;15.00;59.60;;;;;;5022875;28;20571;-59
2023/01/07 03:11:26;;;;;;;6.13;5.37;;;15.10;59.50;;;;;;5029130;28;20451;-59
2023/01/07 03:14:34;;;;;;;6.57;4.77;;;15.00;59.50;;;;;;5028882;28;20464;-59
2023/01/07 03:17:04;;;;;;;4.77;4.37;;;15.10;59.40;;;;;;4994814;28;20455;-59
2023/01/07 03:19:33;;;;;;;4.60;4.20;;;15.10;59.20;;;;;;5031184;28;20440;-59
2023/01/07 03:22:01;;;;;;;4.90;4.50;;;15.20;59.30;;;;;;5026300;28;20770;-59
2023/01/07 03:24:29;;;;;;;4.90;4.33;;;15.10;59.30;;;;;;5024655;28;21986;-59
2023/01/07 03:26:57;;;;;;;4.57;4.17;;;15.10;59.30;;;;;;5029472;28;20830;-60
2023/01/07 03:29:22;;;;;;;5.47;4.20;;;15.10;59.10;;;;;;5032881;28;20483;-59
2023/01/07 03:32:06;;;;;;;4.73;3.93;;;15.20;59.10;;;;;;5032990;28;20463;-59
2023/01/07 03:34:32;;;;;;;4.80;4.30;;;15.20;59.00;;;;;;5030023;28;20272;-59
2023/01/07 03:37:25;;;;;;;8.30;5.23;;;15.20;59.10;;;;;;5025465;28;20443;-59
2023/01/07 03:39:52;;;;;;;6.53;4.77;;;15.10;59.50;;;;;;5021645;28;20448;-59
2023/01/07 03:42:38;;;;;;;5.00;4.30;;;15.10;59.40;;;;;;5031801;28;20526;-59
2023/01/07 03:45:15;;;;;;;5.80;3.90;;;15.10;59.20;;;;;;5032779;28;20567;-59
2023/01/07 03:47:48;;;;;;;4.43;3.90;;;15.10;59.30;;;;;;5030059;28;20505;-59
2023/01/07 03:50:15;;;;;;;5.90;4.50;;;15.10;59.10;;;;;;5030767;28;20514;-59
2023/01/07 03:52:40;;;;;;;5.03;4.20;;;15.00;59.10;;;;;;5029311;28;20439;-59
2023/01/07 03:55:06;;;;;;;4.90;4.33;;;15.00;59.40;;;;;;5027154;28;20439;-59
2023/01/07 03:57:32;;;;;;;4.53;3.93;;;15.00;59.50;;;;;;5029318;28;20201;-59
2023/01/07 03:59:58;;;;;;;4.50;4.10;;;15.10;59.50;;;;;;5028985;28;20457;-59
2023/01/07 04:02:25;;;;;;;4.67;4.10;;;15.10;60.10;;;;;;5029783;28;20436;-59
2023/01/07 04:04:51;;;;;;;4.80;4.40;;;15.00;59.60;;;;;;5032355;28;21001;-59
2023/01/07 04:07:17;;;;;;;6.20;5.27;;;15.00;59.80;;;;;;5031576;28;20451;-59
2023/01/07 04:09:43;;;;;;;4.27;3.87;;;15.00;59.70;;;;;;5023881;28;20221;-59
2023/01/07 04:12:08;;;;;;;5.00;4.60;;;14.90;59.90;;;;;;5024073;28;20190;-59
2023/01/07 04:14:34;;;;;;;4.70;4.30;;;14.80;60.30;;;;;;5017822;28;20314;-59
2023/01/07 04:16:59;;;;;;;4.80;4.40;;;14.80;60.50;;;;;;5026133;28;20217;-59
2023/01/07 04:19:25;;;;;;;4.57;3.90;;;14.90;60.40;;;;;;5029291;28;20189;-59
2023/01/07 04:21:51;;;;;;;5.50;4.33;;;14.90;60.20;;;;;;5030190;28;20238;-59
2023/01/07 04:24:16;;;;;;;4.70;4.30;;;14.80;60.20;;;;;;5029233;28;20537;-59
2023/01/07 04:26:42;;;;;;;4.70;4.07;;;14.70;60.80;;;;;;5029666;28;20279;-59
2023/01/07 04:29:07;;;;;;;5.00;4.50;;;14.60;61.00;;;;;;5031793;28;20212;-59
2023/01/07 04:31:33;;;;;;;4.70;4.20;;;14.70;60.90;;;;;;5021877;28;20630;-59
2023/01/07 04:33:59;;;;;;;5.63;4.40;;;14.80;60.60;;;;;;5030838;28;20251;-59
2023/01/07 04:36:24;;;;;;;5.63;4.30;;;14.90;60.50;;;;;;5032222;28;20475;-59
2023/01/07 04:38:50;;;;;;;4.60;3.80;;;14.90;60.40;;;;;;5030903;28;20212;-59
2023/01/07 04:41:16;;;;;;;4.90;3.70;;;15.00;60.30;;;;;;5030911;28;20691;-59
2023/01/07 04:43:41;;;;;;;4.80;4.40;;;15.00;60.30;;;;;;5023491;28;20644;-59
2023/01/07 04:46:07;;;;;;;4.40;4.00;;;15.00;60.20;;;;;;5024175;28;20192;-59
2023/01/07 04:48:32;;;;;;;4.50;4.10;;;15.00;60.10;;;;;;5024129;28;20200;-59
2023/01/07 04:50:58;;;;;;;5.03;4.60;;;15.00;60.10;;;;;;5029168;28;20185;-59
2023/01/07 04:53:24;;;;;;;4.00;3.70;;;15.00;60.00;;;;;;5030082;28;20264;-59
2023/01/07 04:55:49;;;;;;;4.40;3.90;;;15.00;60.10;;;;;;5028711;28;20192;-59
2023/01/07 04:58:15;;;;;;;4.60;4.17;;;15.00;60.00;;;;;;5025557;28;20190;-59
2023/01/07 05:00:40;;;;;;;4.30;3.90;;;15.10;59.90;;;;;;5022587;28;20244;-59
2023/01/07 05:03:06;;;;;;;4.30;3.90;;;15.00;59.80;;;;;;5021522;28;20230;-59
2023/01/07 05:05:31;;;;;;;3.97;3.53;;;14.90;60.30;;;;;;5016417;28;20225;-59
2023/01/07 05:07:57;;;;;;;3.70;3.40;;;14.80;60.60;;;;;;5026226;28;20689;-59
2023/01/07 05:10:23;;;;;;;4.50;4.10;;;14.80;60.70;;;;;;5029968;28;20271;-59
2023/01/07 05:12:48;;;;;;;4.10;3.80;;;14.80;60.80;;;;;;5025628;28;20527;-59
2023/01/07 05:15:14;;;;;;;4.00;3.60;;;14.90;60.70;;;;;;5024155;28;20222;-59
2023/01/07 05:17:39;;;;;;;3.60;3.30;;;14.90;60.40;;;;;;5021816;28;20195;-59
2023/01/07 05:20:07;;;;;;;4.77;4.27;;;14.80;61.00;;;;;;5022673;28;20232;-59
2023/01/07 05:22:32;;;;;;;4.30;3.90;;;14.90;60.30;;;;;;5020021;28;20202;-59
2023/01/07 05:24:58;;;;;;;5.93;3.90;;;14.80;60.20;;;;;;5018675;28;20468;-59
2023/01/07 05:27:24;;;;;;;5.67;4.50;;;14.70;60.40;;;;;;5027612;28;20185;-59
2023/01/07 05:29:49;;;;;;;7.40;4.37;;;14.80;60.90;;;;;;5023287;28;20225;-59
2023/01/07 05:32:15;;;;;;;5.13;3.90;;;14.90;60.80;;;;;;5021556;28;20784;-59
2023/01/07 05:34:41;;;;;;;4.07;3.67;;;14.80;60.50;;;;;;5025592;28;20226;-59
2023/01/07 05:37:07;;;;;;;4.93;4.47;;;14.70;61.00;;;;;;5026924;28;20853;-59
2023/01/07 05:39:33;;;;;;;5.30;4.30;;;14.70;61.10;;;;;;5022544;28;20186;-59
2023/01/07 05:41:59;;;;;;;5.10;4.70;;;14.70;61.20;;;;;;5030954;28;20477;-59
2023/01/07 05:44:25;;;;;;;4.80;4.40;;;14.70;61.10;;;;;;5026052;28;20443;-59
2023/01/07 05:46:50;;;;;;;4.93;3.93;;;14.50;61.20;;;;;;5022257;28;20429;-59
2023/01/07 05:49:16;;;;;;;6.27;3.70;;;14.50;61.70;;;;;;5019839;28;20228;-59
2023/01/07 05:51:42;;;;;;;3.83;3.37;;;14.60;61.40;;;;;;5030576;28;20315;-59
2023/01/07 05:54:07;;;;;;;4.07;3.77;;;14.70;61.10;;;;;;5030917;28;20251;-59
2023/01/07 05:56:34;;;;;;;6.70;6.20;;;14.80;60.80;;;;;;5030655;28;20185;-59
2023/01/07 05:58:59;;;;;;;4.80;4.23;;;14.80;60.60;;;;;;5024901;28;20194;-59
2023/01/07 06:01:25;;;;;;;5.20;4.70;;;14.80;60.50;;;;;;5031069;28;20436;-59
2023/01/07 06:03:51;;;;;;;4.93;4.07;;;14.80;60.20;;;;;;5028493;28;20362;-59
2023/01/07 06:06:16;;;;;;;4.40;4.00;;;14.70;60.60;;;;;;5028955;28;20263;-59
2023/01/07 06:08:42;;;;;;;4.37;3.53;;;14.70;60.70;;;;;;5029641;28;20219;-59
2023/01/07 06:11:08;;;;;;;5.00;4.13;;;14.70;60.80;;;;;;5027934;28;20201;-59
2023/01/07 06:13:34;;;;;;;4.27;3.77;;;14.70;60.70;;;;;;5029771;28;20201;-59
2023/01/07 06:16:05;;;;;;;4.30;3.90;;;14.70;62.20;;;;;;5027524;28;20254;-59
2023/01/07 06:18:31;;;;;;;5.07;3.67;;;14.80;63.30;;;;;;5026225;28;20447;-59
2023/01/07 06:20:57;;;;;;;4.27;3.37;;;14.90;63.00;;;;;;5024179;28;20447;-59
2023/01/07 06:23:23;;;;;;;3.90;3.60;;;15.10;62.20;;;;;;5026806;28;20560;-59
2023/01/07 06:25:48;;;;;;;4.20;3.83;;;15.20;61.20;;;;;;5023948;28;20216;-59
2023/01/07 06:28:14;;;;;;;3.63;3.33;;;15.30;60.30;;;;;;5028323;28;20204;-59
2023/01/07 06:30:39;;;;;;;5.23;3.37;;;15.20;59.70;;;;;;5021622;28;20745;-59
2023/01/07 06:33:05;;;;;;;3.30;3.00;;;15.30;60.00;;;;;;5022080;28;20857;-59
2023/01/07 06:35:31;;;;;;;4.80;3.50;;;15.40;59.90;;;;;;5012292;28;20185;-60
2023/01/07 06:37:57;;;;;;;3.50;3.20;;;15.60;59.50;;;;;;5019237;28;20209;-59
2023/01/07 06:40:23;;;;;;;3.90;3.60;;;15.70;59.10;;;;;;5024997;28;20472;-59
2023/01/07 06:42:48;;;;;;;3.33;3.10;;;15.60;58.20;;;;;;5018644;28;20235;-59
2023/01/07 06:45:14;;;;;;;3.70;3.40;;;15.70;58.20;;;;;;5022151;28;20276;-59
2023/01/07 06:47:40;;;;;;;3.87;3.57;;;15.70;57.80;;;;;;5025690;28;20585;-59
2023/01/07 06:50:06;;;;;;;3.30;2.63;;;15.70;58.30;;;;;;5030116;28;20229;-59
2023/01/07 06:52:32;;;;;;;3.10;2.90;;;15.70;57.50;;;;;;5026294;28;20193;-59
2023/01/07 06:54:58;;;;;;;2.73;2.53;;;15.70;57.30;;;;;;5028953;28;20446;-59
2023/01/07 06:57:23;;;;;;;2.30;2.20;;;15.60;56.80;;;;;;5023744;28;20437;-59
2023/01/07 06:59:49;;;;;;;2.70;2.50;;;15.70;57.00;;;;;;5027152;28;20602;-59
2023/01/07 07:02:23;;;;;;;2.80;2.60;;;15.70;56.40;;;;;;5027862;28;20190;-59
2023/01/07 07:04:49;;;;;;;2.60;2.40;;;15.90;56.50;;;;;;5022721;28;20231;-59
2023/01/07 07:07:15;;;;;;;3.87;3.07;;;15.90;56.30;;;;;;5027702;28;20466;-59
2023/01/07 07:09:40;;;;;;;3.50;3.20;;;16.00;56.30;;;;;;5027003;28;20228;-59
2023/01/07 07:12:07;;;;;;;3.40;3.20;;;16.10;56.20;;;;;;5021470;28;20865;-59
2023/01/07 07:14:33;;;;;;;3.07;2.87;;;16.20;55.70;;;;;;5015258;28;20193;-59
2023/01/07 07:16:58;;;;;;;5.93;3.33;;;16.20;55.50;;;;;;5025620;28;20436;-59
2023/01/07 07:19:24;;;;;;;3.00;2.80;;;16.30;55.40;;;;;;5024203;28;20455;-59
2023/01/07 07:21:49;;;;;;;3.63;3.33;;;16.30;55.40;;;;;;5024463;28;20720;-60
2023/01/07 07:24:15;;;;;;;3.27;2.97;;;16.30;55.30;;;;;;5025353;28;20208;-59
2023/01/07 07:26:41;;;;;;;3.80;3.40;;;16.40;55.30;;;;;;5029396;28;20189;-59
2023/01/07 07:29:08;;;;;;;3.50;2.97;;;16.40;55.10;;;;;;5023769;28;20217;-59
2023/01/07 07:31:34;;;;;;;3.03;2.83;;;16.40;54.60;;;;;;5022613;28;20232;-59
2023/01/07 07:33:59;;;;;;;2.73;2.27;;;16.40;54.30;;;;;;5027388;28;20440;-59
2023/01/07 07:36:25;;;;;;;2.33;2.13;;;16.30;53.80;;;;;;5030484;28;20185;-59
2023/01/07 07:38:50;;;;;;;2.20;2.00;;;16.30;53.70;;;;;;5032787;28;20197;-59
2023/01/07 07:41:16;;;;;;;3.03;2.83;;;16.30;53.50;;;;;;5032612;28;20592;-60
2023/01/07 07:43:42;;;;;;;2.80;2.60;;;16.30;53.60;;;;;;5032977;28;20216;-59
2023/01/07 07:46:07;;;;;;;2.90;2.70;;;16.40;53.80;;;;;;5033553;28;20545;-59
2023/01/07 07:48:33;;;;;;;2.50;2.30;;;16.40;53.80;;;;;;5032812;28;20204;-59
2023/01/07 07:50:58;;;;;;;2.70;2.50;;;16.40;53.50;;;;;;5028807;28;20186;-59
2023/01/07 07:53:24;;;;;;;2.40;2.20;;;16.30;53.40;;;;;;5030530;28;20189;-59
2023/01/07 07:55:52;;;;;;;2.20;2.00;;;16.30;53.40;;;;;;5031809;28;20267;-60
2023/01/07 07:58:18;;;;;;;1.93;1.83;;;16.40;53.40;;;;;;5032767;28;20268;-60
2023/01/07 08:00:43;;;;;;;2.20;2.07;;;16.40;53.10;;;;;;5027609;28;20436;-59
2023/01/07 08:03:10;;;;;;;4.30;2.03;;;16.50;53.00;;;;;;5031179;28;20494;-59
2023/01/07 08:05:42;;;;;;;5.00;2.80;;;16.40;52.70;;;;;;5032091;28;20205;-59
2023/01/07 08:08:10;;;;;;;2.50;2.30;;;16.40;52.40;;;;;;5032661;28;20450;-59
2023/01/07 08:10:36;;;;;;;2.10;2.00;;;16.50;52.50;;;;;;5026433;28;20483;-59
2023/01/07 08:13:02;;;;;;;2.13;2.03;;;16.50;52.30;;;;;;5032038;28;20436;-59
2023/01/07 08:15:28;;;;;;;2.40;2.20;;;16.40;51.70;;;;;;5030702;28;20846;-59
2023/01/07 08:18:07;;;;;;;2.77;2.57;;;16.50;51.80;;;;;;5031593;28;20793;-59
2023/01/07 08:20:34;;;;;;;2.20;2.10;;;16.50;51.70;;;;;;5032605;28;20195;-61
2023/01/07 08:23:01;;;;;;;2.70;2.50;;;16.40;51.80;;;;;;5031975;28;20452;-59
2023/01/07 08:25:28;;;;;;;2.40;2.20;;;16.40;51.90;;;;;;5032471;28;20459;-59
2023/01/07 08:27:55;;;;;;;2.93;2.63;;;16.40;52.00;;;;;;5026432;28;20478;-59
2023/01/07 08:30:21;;;;;;;5.27;2.60;;;16.50;51.90;;;;;;5030866;28;20475;-59
2023/01/07 08:32:47;;;;;;;2.57;2.37;;;16.50;51.90;;;;;;5031203;28;20465;-59
2023/01/07 08:35:14;;;;;;;3.60;2.50;;;16.50;51.90;;;;;;5020161;28;20494;-59
2023/01/07 08:37:40;;;;;;;3.00;2.70;;;16.60;51.60;;;;;;5029474;28;20538;-58
2023/01/07 08:40:07;;;;;;;2.73;2.20;;;16.60;51.60;;;;;;5023233;28;20538;-58
2023/01/07 08:42:32;;;;;;;2.70;2.40;;;16.60;51.20;;;;;;5026245;28;20736;-58
2023/01/07 08:44:58;;;;;;;2.60;2.40;;;16.50;51.40;;;;;;5029602;28;20523;-57
2023/01/07 08:47:26;;;;;;;2.20;2.00;;;16.60;51.50;;;;;;5025356;28;20652;-58
2023/01/07 08:49:53;;;;;;;2.60;2.40;;;16.70;51.40;;;;;;5033916;28;20213;-58
2023/01/07 08:52:20;;;;;;;2.77;2.57;;;16.70;51.30;;;;;;5030757;28;20428;-58
2023/01/07 08:54:46;;;;;;;4.40;2.70;;;16.70;51.40;;;;;;5021608;28;20439;-58
2023/01/07 08:57:11;;;;;;;3.67;2.90;;;16.70;51.30;;;;;;5030366;28;20446;-59
2023/01/07 08:59:39;;;;;;;2.93;2.73;;;16.60;51.70;;;;;;5025499;28;20189;-59
2023/01/07 09:02:06;;;;;;;4.03;3.20;;;16.60;51.90;;;;;;5027450;28;20256;-59
2023/01/07 09:04:31;;;;;;;4.87;4.03;;;16.50;51.60;;;;;;5032043;28;20483;-59
2023/01/07 09:06:57;;;;;;;8.67;7.43;;;16.30;52.10;;;;;;5032386;28;20432;-59
2023/01/07 09:09:22;;;;;;;4.20;3.23;;;16.40;52.10;;;;;;5029918;28;20221;-59
2023/01/07 09:11:48;;;;;;;3.63;3.30;;;16.40;51.40;;;;;;5031647;28;20185;-59
2023/01/07 09:14:13;;;;;;;6.27;5.67;;;16.20;50.90;;;;;;5027721;28;20197;-59
2023/01/07 09:16:39;;;;;;;5.23;3.63;;;16.00;51.60;;;;;;5022582;28;20297;-59
2023/01/07 09:19:05;;;;;;;3.73;3.13;;;15.90;51.70;;;;;;5026448;28;20205;-59
2023/01/07 09:21:30;;;;;;;5.53;5.03;;;15.90;52.10;;;;;;5025177;28;20196;-59
2023/01/07 09:23:56;;;;;;;3.20;2.90;;;16.10;52.40;;;;;;5027107;28;20189;-59
2023/01/07 09:26:21;;;;;;;2.97;2.70;;;16.00;52.10;;;;;;5028463;28;20192;-59
2023/01/07 09:28:47;;;;;;;4.33;3.27;;;15.90;52.40;;;;;;5025724;28;20310;-59
2023/01/07 09:31:12;;;;;;;3.77;3.37;;;15.90;52.50;;;;;;5023325;28;20193;-59
2023/01/07 09:33:39;;;;;;;3.50;3.20;;;15.80;52.90;;;;;;5030530;28;20193;-59
2023/01/07 09:36:05;;;;;;;3.93;3.60;;;15.60;53.00;;;;;;5025503;28;20201;-59
2023/01/07 09:38:31;;;;;;;3.73;3.43;;;15.70;52.20;;;;;;5024961;28;20451;-59
2023/01/07 09:40:57;;;;;;;3.80;3.50;;;15.80;52.50;;;;;;5030499;28;20636;-59
2023/01/07 09:43:35;;;;;;;3.30;3.10;;;16.00;52.60;;;;;;5025726;28;20437;-58
2023/01/07 09:46:04;;;;;;;3.33;3.03;;;16.10;52.40;;;;;;5024906;28;20181;-59
2023/01/07 09:48:42;;;;;;;3.60;3.30;;;16.20;52.10;;;;;;5027763;28;20456;-59
2023/01/07 09:51:46;;;;;;;15.00;10.97;;;16.30;52.00;;;;;;5011261;28;20429;-59
2023/01/07 09:54:36;;;;;;;6.80;4.90;;;16.20;51.80;;;;;;5023768;28;20581;-59
2023/01/07 09:57:03;;;;;;;4.03;3.27;;;16.30;51.70;;;;;;5020702;28;20448;-59
2023/01/07 09:59:29;;;;;;;2.90;2.70;;;16.30;51.20;;;;;;5027112;28;20807;-59
2023/01/07 10:02:12;;;;;;;2.73;2.50;;;16.30;50.90;;;;;;5028332;28;20444;-58
2023/01/07 10:05:04;;;;;;;6.37;2.63;;;16.40;50.50;;;;;;5022772;28;20483;-59
2023/01/07 10:07:37;;;;;;;2.70;2.50;;;16.40;50.30;;;;;;5028058;28;20443;-59
2023/01/07 10:10:03;;;;;;;2.87;2.67;;;16.40;50.20;;;;;;5022204;28;20490;-59
2023/01/07 10:12:31;;;;;;;3.10;2.80;;;16.20;50.10;;;;;;5024577;28;20920;-59
2023/01/07 10:15:08;;;;;;;3.27;2.97;;;16.20;50.70;;;;;;5029068;28;20185;-59
2023/01/07 10:17:51;;;;;;;4.17;3.20;;;16.40;50.90;;;;;;5019565;28;20447;-59
2023/01/07 10:20:26;;;;;;;3.10;2.90;;;16.30;50.70;;;;;;5024464;28;20444;-59
2023/01/07 10:23:20;;;;;;;3.13;2.83;;;16.40;50.40;;;;;;5024356;28;20443;-59
2023/01/07 10:25:52;;;;;;;3.20;2.97;;;16.40;50.20;;;;;;5010336;28;20468;-59
2023/01/07 10:28:27;;;;;;;3.37;3.07;;;16.50;50.40;;;;;;5018078;28;20436;-59
2023/01/07 10:30:53;;;;;;;4.17;3.37;;;16.50;50.20;;;;;;5020767;28;20564;-60
2023/01/07 10:33:29;;;;;;;3.90;3.50;;;16.40;50.00;;;;;;5027326;28;20527;-59
2023/01/07 10:36:21;;;;;;;3.33;3.03;;;16.30;49.80;;;;;;5028043;28;20185;-59
2023/01/07 10:38:56;;;;;;;3.20;3.00;;;16.50;50.20;;;;;;5014879;28;20927;-59
2023/01/07 10:41:43;;;;;;;3.47;3.17;;;16.60;49.80;;;;;;5027521;28;20804;-59
2023/01/07 10:44:56;;;;;;;4.13;3.83;;;16.70;49.80;;;;;;5025467;28;20530;-59
2023/01/07 10:47:37;;;;;;;3.80;3.50;;;16.90;48.90;;;;;;5022634;28;20522;-59
2023/01/07 10:50:20;;;;;;;4.67;4.27;;;17.10;49.00;;;;;;5018718;28;20490;-59
2023/01/07 10:53:07;;;;;;;4.70;4.30;;;17.30;48.90;;;;;;5024314;28;22302;-60
2023/01/07 10:55:42;;;;;;;4.13;3.73;;;17.30;47.70;;;;;;5017434;28;20943;-59
2023/01/07 10:58:10;;;;;;;4.63;3.77;;;17.10;48.20;;;;;;5021534;28;20908;-59
2023/01/07 11:00:37;;;;;;;4.40;4.00;;;17.20;48.60;;;;;;5024864;28;20556;-59
2023/01/07 11:03:03;;;;;;;3.90;3.60;;;17.50;48.50;;;;;;5024861;28;20486;-59
2023/01/07 11:05:36;;;;;;;4.87;4.40;;;17.60;47.80;;;;;;5025800;28;20523;-59
2023/01/07 11:08:03;;;;;;;6.20;5.00;;;17.70;47.60;;;;;;5013249;28;20189;-59
2023/01/07 11:10:35;;;;;;;4.60;4.20;;;17.70;47.00;;;;;;5021026;28;20570;-59
2023/01/07 11:13:11;;;;;;;5.00;4.50;;;17.90;47.10;;;;;;5031021;28;20501;-59
2023/01/07 11:15:45;;;;;;;4.30;3.90;;;18.00;46.30;;;;;;5032721;28;20444;-59
2023/01/07 11:18:19;;;;;;;5.17;4.67;;;18.10;46.00;;;;;;5029218;28;20522;-60
2023/01/07 11:20:48;;;;;;;4.77;3.97;;;18.40;45.80;;;;;;5025437;28;20469;-60
2023/01/07 11:23:25;;;;;;;4.43;4.00;;;18.60;45.40;;;;;;5028155;28;20468;-60
2023/01/07 11:25:51;;;;;;;4.67;4.27;;;18.80;45.00;;;;;;5020872;28;20565;-60
2023/01/07 11:28:19;;;;;;;4.60;3.87;;;18.50;45.10;;;;;;5030874;28;20440;-60
2023/01/07 11:30:56;;;;;;;4.33;4.03;;;18.30;45.30;;;;;;5025592;28;20521;-60
2023/01/07 11:33:26;;;;;;;4.70;4.30;;;18.00;45.50;;;;;;5022593;28;20944;-59
2023/01/07 11:35:53;;;;;;;6.40;4.20;;;17.60;46.50;;;;;;5022080;28;20535;-59
2023/01/07 11:38:31;;;;;;;4.67;4.27;;;17.60;47.50;;;;;;5024240;28;20432;-59
2023/01/07 11:40:59;;;;;;;5.53;5.03;;;17.80;47.30;;;;;;5026238;28;20494;-59
2023/01/07 11:43:31;;;;;;;4.33;3.93;;;17.70;46.70;;;;;;5030187;28;20442;-59
2023/01/07 11:45:59;;;;;;;4.30;3.90;;;17.60;47.00;;;;;;5031626;28;20439;-59
2023/01/07 11:48:28;;;;;;;4.30;3.90;;;17.80;47.10;;;;;;5028913;28;20436;-59
2023/01/07 11:51:04;;;;;;;5.03;4.50;;;17.90;46.80;;;;;;5023589;28;20830;-59
2023/01/07 11:53:40;;;;;;;3.90;3.60;;;17.60;46.30;;;;;;5019915;28;20443;-59
2023/01/07 11:56:05;;;;;;;3.73;3.43;;;17.50;46.80;;;;;;5014354;28;20480;-59
2023/01/07 11:58:34;;;;;;;4.27;3.87;;;17.60;46.40;;;;;;5018665;28;20514;-59
2023/01/07 12:01:06;;;;;;;4.23;3.90;;;17.50;46.50;;;;;;5026522;28;20617;-59
2023/01/07 12:03:32;;;;;;;3.93;3.60;;;17.70;46.90;;;;;;5032484;28;20475;-59
2023/01/07 12:06:06;;;;;;;4.30;3.50;;;17.70;46.40;;;;;;5029876;28;20891;-59
2023/01/07 12:08:32;;;;;;;4.50;4.10;;;17.80;46.30;;;;;;5027747;28;20442;-59
2023/01/07 12:11:05;;;;;;;3.63;3.33;;;18.00;46.70;;;;;;5029519;28;20428;-58
2023/01/07 12:13:31;;;;;;;4.83;4.30;;;18.00;46.30;;;;;;5026833;28;20276;-60
2023/01/07 12:16:03;;;;;;;4.40;4.00;;;18.00;46.00;;;;;;5023936;28;20526;-59
2023/01/07 12:19:17;;;;;;;3.87;3.57;;;18.00;46.00;;;;;;5026544;28;20189;-58
2023/01/07 12:21:52;;;;;;;4.87;4.37;;;17.90;45.80;;;;;;5006112;28;20460;-59
2023/01/07 12:24:26;;;;;;;4.00;3.70;;;17.10;46.90;;;;;;5029067;28;20435;-58
2023/01/07 12:27:21;;;;;;;4.00;3.67;;;16.60;47.60;;;;;;5027614;28;20424;-58
2023/01/07 12:30:06;;;;;;;3.53;3.23;;;16.50;48.30;;;;;;5029338;28;20483;-58
2023/01/07 12:32:47;;;;;;;4.27;3.87;;;17.00;48.30;;;;;;5029278;28;21877;-59
2023/01/07 12:35:21;;;;;;;4.37;3.60;;;17.20;47.50;;;;;;5020193;28;20446;-59
2023/01/07 12:37:52;;;;;;;4.03;3.73;;;17.10;47.60;;;;;;5027826;28;20444;-58
2023/01/07 12:40:47;;;;;;;3.80;3.50;;;16.90;48.00;;;;;;5026180;28;20499;-59
2023/01/07 12:43:23;;;;;;;3.93;3.63;;;17.20;47.40;;;;;;5004431;28;20444;-58
2023/01/07 12:45:54;;;;;;;3.97;3.67;;;16.60;47.40;;;;;;5030215;28;20436;-59
2023/01/07 12:48:42;;;;;;;4.30;4.00;;;16.60;48.60;;;;;;5025817;28;20946;-59
2023/01/07 12:51:43;;;;;;;3.87;3.57;;;16.80;48.70;;;;;;5024036;28;20452;-59
2023/01/07 12:54:33;;;;;;;4.50;3.20;;;16.60;48.00;;;;;;5018579;28;20470;-59
2023/01/07 12:57:13;;;;;;;3.43;3.13;;;16.70;48.40;;;;;;5029900;28;20444;-59
2023/01/07 12:59:41;;;;;;;3.70;3.37;;;17.00;48.10;;;;;;5027039;28;20469;-59
2023/01/07 13:02:16;;;;;;;4.00;3.70;;;16.90;48.00;;;;;;5018360;28;20510;-59
2023/01/07 13:05:06;;;;;;;3.80;3.40;;;16.80;47.80;;;;;;5019705;28;20467;-59